sensor_id;sensor_type;location;lat;lon;timestamp;P1;durP1;ratioP1;P2;durP2;ratioP2
84660;SDS011;74889;52.240;20.902;2024-03-29T00:03:10;15.60;;;7.00;;
84660;SDS011;74889;52.240;20.902;2024-03-29T00:05:55;11.50;;;6.80;;
84660;SDS011;74889;52.240;20.902;2024-03-29T00:08:21;12.20;;;6.90;;
84660;SDS011;74889;52.240;20.902;2024-03-29T00:10:47;13.40;;;6.80;;
84660;SDS011;74889;52.240;20.902;2024-03-29T00:13:14;10.70;;;5.80;;
84660;SDS011;74889;52.240;20.902;2024-03-29T00:15:39;14.00;;;6.60;;
84660;SDS011;74889;52.240;20.902;2024-03-29T00:18:05;12.90;;;6.10;;
84660;SDS011;74889;52.240;20.902;2024-03-29T00:20:32;10.30;;;5.70;;
84660;SDS011;74889;52.240;20.902;2024-03-29T00:23:17;12.10;;;5.90;;
84660;SDS011;74889;52.240;20.902;2024-03-29T00:25:43;10.00;;;5.30;;
84660;SDS011;74889;52.240;20.902;2024-03-29T00:31:14;13.70;;;6.00;;
84660;SDS011;74889;52.240;20.902;2024-03-29T00:33:41;10.40;;;5.10;;
84660;SDS011;74889;52.240;20.902;2024-03-29T00:36:06;10.50;;;5.50;;
84660;SDS011;74889;52.240;20.902;2024-03-29T00:38:32;10.40;;;5.20;;
84660;SDS011;74889;52.240;20.902;2024-03-29T00:40:59;10.80;;;5.50;;
84660;SDS011;74889;52.240;20.902;2024-03-29T00:43:24;6.90;;;4.20;;
84660;SDS011;74889;52.240;20.902;2024-03-29T00:45:50;10.60;;;5.00;;
84660;SDS011;74889;52.240;20.902;2024-03-29T00:48:17;8.90;;;4.70;;
84660;SDS011;74889;52.240;20.902;2024-03-29T00:50:45;7.10;;;4.30;;
84660;SDS011;74889;52.240;20.902;2024-03-29T00:53:29;8.00;;;4.00;;
84660;SDS011;74889;52.240;20.902;2024-03-29T00:58:42;7.30;;;3.90;;
84660;SDS011;74889;52.240;20.902;2024-03-29T01:01:07;8.00;;;4.40;;
84660;SDS011;74889;52.240;20.902;2024-03-29T01:03:33;7.60;;;3.80;;
84660;SDS011;74889;52.240;20.902;2024-03-29T01:05:59;4.70;;;2.70;;
84660;SDS011;74889;52.240;20.902;2024-03-29T01:08:25;4.50;;;2.60;;
84660;SDS011;74889;52.240;20.902;2024-03-29T01:11:09;5.30;;;2.60;;
84660;SDS011;74889;52.240;20.902;2024-03-29T01:13:35;4.70;;;2.50;;
84660;SDS011;74889;52.240;20.902;2024-03-29T01:16:00;6.60;;;2.40;;
84660;SDS011;74889;52.240;20.902;2024-03-29T01:18:26;7.40;;;2.90;;
84660;SDS011;74889;52.240;20.902;2024-03-29T01:20:51;4.60;;;2.20;;
84660;SDS011;74889;52.240;20.902;2024-03-29T01:23:17;3.60;;;1.80;;
84660;SDS011;74889;52.240;20.902;2024-03-29T01:25:42;5.40;;;2.20;;
84660;SDS011;74889;52.240;20.902;2024-03-29T01:28:09;4.90;;;2.10;;
84660;SDS011;74889;52.240;20.902;2024-03-29T01:30:36;4.50;;;1.80;;
84660;SDS011;74889;52.240;20.902;2024-03-29T01:33:01;5.20;;;1.90;;
84660;SDS011;74889;52.240;20.902;2024-03-29T01:35:27;3.60;;;2.10;;
84660;SDS011;74889;52.240;20.902;2024-03-29T01:37:52;4.60;;;1.80;;
84660;SDS011;74889;52.240;20.902;2024-03-29T01:40:19;4.40;;;2.10;;
84660;SDS011;74889;52.240;20.902;2024-03-29T01:42:44;7.50;;;2.40;;
84660;SDS011;74889;52.240;20.902;2024-03-29T01:45:10;3.90;;;2.10;;
84660;SDS011;74889;52.240;20.902;2024-03-29T01:47:37;3.50;;;2.10;;
84660;SDS011;74889;52.240;20.902;2024-03-29T01:50:03;3.90;;;2.20;;
84660;SDS011;74889;52.240;20.902;2024-03-29T01:52:29;2.50;;;1.70;;
84660;SDS011;74889;52.240;20.902;2024-03-29T01:54:55;5.90;;;1.80;;
84660;SDS011;74889;52.240;20.902;2024-03-29T01:57:21;4.80;;;2.20;;
84660;SDS011;74889;52.240;20.902;2024-03-29T01:59:49;6.60;;;2.10;;
84660;SDS011;74889;52.240;20.902;2024-03-29T02:02:15;4.60;;;2.00;;
84660;SDS011;74889;52.240;20.902;2024-03-29T02:04:41;3.50;;;1.90;;
84660;SDS011;74889;52.240;20.902;2024-03-29T02:07:07;4.00;;;1.90;;
84660;SDS011;74889;52.240;20.902;2024-03-29T02:09:33;5.60;;;1.90;;
84660;SDS011;74889;52.240;20.902;2024-03-29T02:11:59;3.50;;;1.90;;
84660;SDS011;74889;52.240;20.902;2024-03-29T02:14:26;3.30;;;1.70;;
84660;SDS011;74889;52.240;20.902;2024-03-29T02:16:52;5.10;;;1.80;;
84660;SDS011;74889;52.240;20.902;2024-03-29T02:19:17;4.70;;;1.70;;
84660;SDS011;74889;52.240;20.902;2024-03-29T02:21:45;5.90;;;1.70;;
84660;SDS011;74889;52.240;20.902;2024-03-29T02:24:14;3.90;;;1.80;;
84660;SDS011;74889;52.240;20.902;2024-03-29T02:26:41;3.70;;;1.90;;
84660;SDS011;74889;52.240;20.902;2024-03-29T02:29:08;4.60;;;1.60;;
84660;SDS011;74889;52.240;20.902;2024-03-29T02:31:38;4.90;;;1.80;;
84660;SDS011;74889;52.240;20.902;2024-03-29T02:34:03;5.30;;;1.90;;
84660;SDS011;74889;52.240;20.902;2024-03-29T02:36:29;5.80;;;1.50;;
84660;SDS011;74889;52.240;20.902;2024-03-29T02:38:54;4.30;;;1.80;;
84660;SDS011;74889;52.240;20.902;2024-03-29T02:41:22;4.80;;;1.50;;
84660;SDS011;74889;52.240;20.902;2024-03-29T02:43:47;3.90;;;1.80;;
84660;SDS011;74889;52.240;20.902;2024-03-29T02:46:31;5.70;;;1.80;;
84660;SDS011;74889;52.240;20.902;2024-03-29T02:48:57;5.00;;;1.90;;
84660;SDS011;74889;52.240;20.902;2024-03-29T02:51:23;4.30;;;1.90;;
84660;SDS011;74889;52.240;20.902;2024-03-29T02:53:48;3.20;;;2.00;;
84660;SDS011;74889;52.240;20.902;2024-03-29T02:56:33;6.30;;;1.90;;
84660;SDS011;74889;52.240;20.902;2024-03-29T02:58:59;3.90;;;1.50;;
84660;SDS011;74889;52.240;20.902;2024-03-29T03:01:43;4.20;;;1.80;;
84660;SDS011;74889;52.240;20.902;2024-03-29T03:04:09;3.10;;;1.50;;
84660;SDS011;74889;52.240;20.902;2024-03-29T03:06:34;4.50;;;1.90;;
84660;SDS011;74889;52.240;20.902;2024-03-29T03:09:00;4.90;;;1.80;;
84660;SDS011;74889;52.240;20.902;2024-03-29T03:11:44;3.30;;;1.80;;
84660;SDS011;74889;52.240;20.902;2024-03-29T03:14:09;2.60;;;1.70;;
84660;SDS011;74889;52.240;20.902;2024-03-29T03:16:35;3.60;;;1.90;;
84660;SDS011;74889;52.240;20.902;2024-03-29T03:19:00;3.90;;;1.90;;
84660;SDS011;74889;52.240;20.902;2024-03-29T03:21:26;4.60;;;2.30;;
84660;SDS011;74889;52.240;20.902;2024-03-29T03:24:10;3.30;;;1.80;;
84660;SDS011;74889;52.240;20.902;2024-03-29T03:26:37;5.80;;;1.70;;
84660;SDS011;74889;52.240;20.902;2024-03-29T03:29:03;3.80;;;1.80;;
84660;SDS011;74889;52.240;20.902;2024-03-29T03:31:29;6.80;;;2.10;;
84660;SDS011;74889;52.240;20.902;2024-03-29T03:33:55;4.60;;;1.80;;
84660;SDS011;74889;52.240;20.902;2024-03-29T03:36:20;5.80;;;2.10;;
84660;SDS011;74889;52.240;20.902;2024-03-29T03:38:46;6.20;;;1.60;;
84660;SDS011;74889;52.240;20.902;2024-03-29T03:41:11;4.10;;;2.30;;
84660;SDS011;74889;52.240;20.902;2024-03-29T03:43:55;2.80;;;1.80;;
84660;SDS011;74889;52.240;20.902;2024-03-29T03:46:21;4.50;;;2.00;;
84660;SDS011;74889;52.240;20.902;2024-03-29T03:49:06;6.50;;;2.20;;
84660;SDS011;74889;52.240;20.902;2024-03-29T03:51:33;5.10;;;2.20;;
84660;SDS011;74889;52.240;20.902;2024-03-29T03:53:58;4.00;;;1.90;;
84660;SDS011;74889;52.240;20.902;2024-03-29T03:56:24;4.70;;;1.80;;
84660;SDS011;74889;52.240;20.902;2024-03-29T03:58:49;3.20;;;2.10;;
84660;SDS011;74889;52.240;20.902;2024-03-29T04:01:16;3.10;;;1.90;;
84660;SDS011;74889;52.240;20.902;2024-03-29T04:09:30;2.20;;;1.40;;
84660;SDS011;74889;52.240;20.902;2024-03-29T04:11:56;4.30;;;1.90;;
84660;SDS011;74889;52.240;20.902;2024-03-29T04:17:06;5.00;;;2.10;;
84660;SDS011;74889;52.240;20.902;2024-03-29T04:19:31;4.30;;;2.20;;
84660;SDS011;74889;52.240;20.902;2024-03-29T04:21:57;5.00;;;2.00;;
84660;SDS011;74889;52.240;20.902;2024-03-29T04:24:22;3.70;;;2.40;;
84660;SDS011;74889;52.240;20.902;2024-03-29T04:26:48;2.90;;;1.60;;
84660;SDS011;74889;52.240;20.902;2024-03-29T04:29:13;8.90;;;1.90;;
84660;SDS011;74889;52.240;20.902;2024-03-29T04:31:39;3.50;;;1.80;;
84660;SDS011;74889;52.240;20.902;2024-03-29T04:34:05;3.70;;;2.10;;
84660;SDS011;74889;52.240;20.902;2024-03-29T04:36:31;4.30;;;2.00;;
84660;SDS011;74889;52.240;20.902;2024-03-29T04:38:56;7.50;;;2.00;;
84660;SDS011;74889;52.240;20.902;2024-03-29T04:41:22;4.60;;;2.00;;
84660;SDS011;74889;52.240;20.902;2024-03-29T04:43:50;3.30;;;1.80;;
84660;SDS011;74889;52.240;20.902;2024-03-29T04:46:16;6.30;;;2.10;;
84660;SDS011;74889;52.240;20.902;2024-03-29T04:48:42;3.60;;;1.90;;
84660;SDS011;74889;52.240;20.902;2024-03-29T04:51:27;4.30;;;2.20;;
84660;SDS011;74889;52.240;20.902;2024-03-29T04:54:11;5.80;;;2.60;;
84660;SDS011;74889;52.240;20.902;2024-03-29T04:56:36;3.90;;;1.90;;
84660;SDS011;74889;52.240;20.902;2024-03-29T04:59:02;3.90;;;1.70;;
84660;SDS011;74889;52.240;20.902;2024-03-29T05:01:28;4.10;;;2.10;;
84660;SDS011;74889;52.240;20.902;2024-03-29T05:03:53;2.50;;;1.50;;
84660;SDS011;74889;52.240;20.902;2024-03-29T05:06:38;4.00;;;1.90;;
84660;SDS011;74889;52.240;20.902;2024-03-29T05:09:03;4.70;;;2.20;;
84660;SDS011;74889;52.240;20.902;2024-03-29T05:11:29;2.70;;;1.70;;
84660;SDS011;74889;52.240;20.902;2024-03-29T05:13:54;5.60;;;2.00;;
84660;SDS011;74889;52.240;20.902;2024-03-29T05:16:21;4.20;;;2.00;;
84660;SDS011;74889;52.240;20.902;2024-03-29T05:18:47;4.00;;;2.10;;
84660;SDS011;74889;52.240;20.902;2024-03-29T05:21:13;5.50;;;2.30;;
84660;SDS011;74889;52.240;20.902;2024-03-29T05:23:39;3.30;;;2.10;;
84660;SDS011;74889;52.240;20.902;2024-03-29T05:26:05;3.20;;;1.80;;
84660;SDS011;74889;52.240;20.902;2024-03-29T05:28:30;4.80;;;2.40;;
84660;SDS011;74889;52.240;20.902;2024-03-29T05:30:56;4.10;;;2.00;;
84660;SDS011;74889;52.240;20.902;2024-03-29T05:33:35;7.10;;;2.30;;
84660;SDS011;74889;52.240;20.902;2024-03-29T05:36:03;7.20;;;2.20;;
84660;SDS011;74889;52.240;20.902;2024-03-29T05:38:30;4.70;;;2.10;;
84660;SDS011;74889;52.240;20.902;2024-03-29T05:41:14;4.00;;;1.90;;
84660;SDS011;74889;52.240;20.902;2024-03-29T05:43:58;5.90;;;2.10;;
84660;SDS011;74889;52.240;20.902;2024-03-29T05:46:25;5.70;;;1.80;;
84660;SDS011;74889;52.240;20.902;2024-03-29T05:48:50;5.00;;;2.10;;
84660;SDS011;74889;52.240;20.902;2024-03-29T05:51:16;4.50;;;1.90;;
84660;SDS011;74889;52.240;20.902;2024-03-29T05:53:42;3.00;;;1.80;;
84660;SDS011;74889;52.240;20.902;2024-03-29T05:56:27;3.80;;;1.80;;
84660;SDS011;74889;52.240;20.902;2024-03-29T05:58:52;3.90;;;2.20;;
84660;SDS011;74889;52.240;20.902;2024-03-29T06:01:20;6.20;;;2.10;;
84660;SDS011;74889;52.240;20.902;2024-03-29T06:03:46;3.90;;;2.10;;
84660;SDS011;74889;52.240;20.902;2024-03-29T06:06:12;5.30;;;1.80;;
84660;SDS011;74889;52.240;20.902;2024-03-29T06:08:43;3.10;;;1.70;;
84660;SDS011;74889;52.240;20.902;2024-03-29T06:11:09;4.80;;;2.80;;
84660;SDS011;74889;52.240;20.902;2024-03-29T06:13:34;7.30;;;2.40;;
84660;SDS011;74889;52.240;20.902;2024-03-29T06:16:23;4.40;;;2.20;;
84660;SDS011;74889;52.240;20.902;2024-03-29T06:21:53;5.80;;;2.70;;
84660;SDS011;74889;52.240;20.902;2024-03-29T06:24:19;6.20;;;2.70;;
84660;SDS011;74889;52.240;20.902;2024-03-29T06:26:45;4.20;;;2.40;;
84660;SDS011;74889;52.240;20.902;2024-03-29T06:29:11;5.00;;;2.50;;
84660;SDS011;74889;52.240;20.902;2024-03-29T06:31:36;5.40;;;2.60;;
84660;SDS011;74889;52.240;20.902;2024-03-29T06:34:02;3.90;;;2.50;;
84660;SDS011;74889;52.240;20.902;2024-03-29T06:36:29;6.10;;;2.30;;
84660;SDS011;74889;52.240;20.902;2024-03-29T06:38:56;9.30;;;2.50;;
84660;SDS011;74889;52.240;20.902;2024-03-29T06:41:21;4.10;;;2.20;;
84660;SDS011;74889;52.240;20.902;2024-03-29T06:43:47;5.60;;;2.20;;
84660;SDS011;74889;52.240;20.902;2024-03-29T06:46:13;6.40;;;2.90;;
84660;SDS011;74889;52.240;20.902;2024-03-29T06:48:39;24.60;;;13.10;;
84660;SDS011;74889;52.240;20.902;2024-03-29T06:51:05;60.80;;;31.00;;
84660;SDS011;74889;52.240;20.902;2024-03-29T06:53:30;43.80;;;21.40;;
84660;SDS011;74889;52.240;20.902;2024-03-29T06:58:41;78.80;;;29.60;;
84660;SDS011;74889;52.240;20.902;2024-03-29T07:01:08;43.40;;;18.30;;
84660;SDS011;74889;52.240;20.902;2024-03-29T07:03:35;33.50;;;17.00;;
84660;SDS011;74889;52.240;20.902;2024-03-29T07:06:01;22.20;;;9.50;;
84660;SDS011;74889;52.240;20.902;2024-03-29T07:08:28;19.50;;;9.10;;
84660;SDS011;74889;52.240;20.902;2024-03-29T07:10:57;15.60;;;6.20;;
84660;SDS011;74889;52.240;20.902;2024-03-29T07:13:28;20.30;;;9.30;;
84660;SDS011;74889;52.240;20.902;2024-03-29T07:16:01;33.00;;;11.40;;
84660;SDS011;74889;52.240;20.902;2024-03-29T07:18:28;10.00;;;5.70;;
84660;SDS011;74889;52.240;20.902;2024-03-29T07:20:55;20.60;;;6.90;;
84660;SDS011;74889;52.240;20.902;2024-03-29T07:23:21;13.10;;;5.40;;
84660;SDS011;74889;52.240;20.902;2024-03-29T07:25:59;9.10;;;3.70;;
84660;SDS011;74889;52.240;20.902;2024-03-29T07:28:26;11.50;;;5.70;;
84660;SDS011;74889;52.240;20.902;2024-03-29T07:30:55;14.20;;;6.90;;
84660;SDS011;74889;52.240;20.902;2024-03-29T07:33:21;11.00;;;4.30;;
84660;SDS011;74889;52.240;20.902;2024-03-29T07:35:55;8.90;;;4.00;;
84660;SDS011;74889;52.240;20.902;2024-03-29T07:38:21;9.20;;;3.10;;
84660;SDS011;74889;52.240;20.902;2024-03-29T07:40:48;15.70;;;4.20;;
84660;SDS011;74889;52.240;20.902;2024-03-29T07:43:15;11.00;;;3.70;;
84660;SDS011;74889;52.240;20.902;2024-03-29T07:45:41;8.00;;;3.20;;
84660;SDS011;74889;52.240;20.902;2024-03-29T07:51:10;18.00;;;6.20;;
84660;SDS011;74889;52.240;20.902;2024-03-29T07:53:36;13.80;;;4.50;;
84660;SDS011;74889;52.240;20.902;2024-03-29T07:56:01;7.50;;;3.60;;
84660;SDS011;74889;52.240;20.902;2024-03-29T07:58:27;9.60;;;3.60;;
84660;SDS011;74889;52.240;20.902;2024-03-29T08:00:53;9.80;;;2.60;;
84660;SDS011;74889;52.240;20.902;2024-03-29T08:03:19;10.50;;;4.10;;
84660;SDS011;74889;52.240;20.902;2024-03-29T08:08:32;9.70;;;3.90;;
84660;SDS011;74889;52.240;20.902;2024-03-29T08:10:59;5.50;;;2.30;;
84660;SDS011;74889;52.240;20.902;2024-03-29T08:13:25;5.90;;;1.50;;
84660;SDS011;74889;52.240;20.902;2024-03-29T08:15:57;3.90;;;1.40;;
84660;SDS011;74889;52.240;20.902;2024-03-29T08:19:01;13.10;;;2.80;;
84660;SDS011;74889;52.240;20.902;2024-03-29T08:21:27;8.10;;;1.90;;
84660;SDS011;74889;52.240;20.902;2024-03-29T08:23:53;5.20;;;1.90;;
84660;SDS011;74889;52.240;20.902;2024-03-29T08:26:20;4.10;;;1.40;;
84660;SDS011;74889;52.240;20.902;2024-03-29T08:34:15;7.40;;;2.20;;
84660;SDS011;74889;52.240;20.902;2024-03-29T08:36:41;6.50;;;1.50;;
84660;SDS011;74889;52.240;20.902;2024-03-29T08:39:06;3.80;;;1.40;;
84660;SDS011;74889;52.240;20.902;2024-03-29T08:41:32;3.10;;;1.30;;
84660;SDS011;74889;52.240;20.902;2024-03-29T08:43:57;2.50;;;1.10;;
84660;SDS011;74889;52.240;20.902;2024-03-29T08:46:23;7.00;;;1.30;;
84660;SDS011;74889;52.240;20.902;2024-03-29T08:48:48;2.40;;;1.00;;
84660;SDS011;74889;52.240;20.902;2024-03-29T08:51:14;4.40;;;1.10;;
84660;SDS011;74889;52.240;20.902;2024-03-29T08:53:42;2.60;;;0.90;;
84660;SDS011;74889;52.240;20.902;2024-03-29T08:56:08;7.60;;;1.20;;
84660;SDS011;74889;52.240;20.902;2024-03-29T08:58:52;4.30;;;1.30;;
84660;SDS011;74889;52.240;20.902;2024-03-29T09:01:18;5.20;;;1.50;;
84660;SDS011;74889;52.240;20.902;2024-03-29T09:03:44;3.40;;;0.80;;
84660;SDS011;74889;52.240;20.902;2024-03-29T09:06:09;7.20;;;1.20;;
84660;SDS011;74889;52.240;20.902;2024-03-29T09:08:54;5.20;;;1.20;;
84660;SDS011;74889;52.240;20.902;2024-03-29T09:11:19;2.40;;;1.00;;
84660;SDS011;74889;52.240;20.902;2024-03-29T09:13:46;3.10;;;1.10;;
84660;SDS011;74889;52.240;20.902;2024-03-29T09:16:12;5.20;;;1.40;;
84660;SDS011;74889;52.240;20.902;2024-03-29T09:18:37;5.60;;;1.30;;
84660;SDS011;74889;52.240;20.902;2024-03-29T09:21:04;5.60;;;1.40;;
84660;SDS011;74889;52.240;20.902;2024-03-29T09:23:31;6.00;;;1.30;;
84660;SDS011;74889;52.240;20.902;2024-03-29T09:25:56;2.90;;;1.40;;
84660;SDS011;74889;52.240;20.902;2024-03-29T09:28:23;5.60;;;1.70;;
84660;SDS011;74889;52.240;20.902;2024-03-29T09:30:49;6.80;;;1.50;;
84660;SDS011;74889;52.240;20.902;2024-03-29T09:33:15;6.60;;;1.40;;
84660;SDS011;74889;52.240;20.902;2024-03-29T09:35:41;4.70;;;1.40;;
84660;SDS011;74889;52.240;20.902;2024-03-29T09:38:06;4.90;;;1.40;;
84660;SDS011;74889;52.240;20.902;2024-03-29T09:41:10;4.60;;;1.40;;
84660;SDS011;74889;52.240;20.902;2024-03-29T09:43:37;4.20;;;1.50;;
84660;SDS011;74889;52.240;20.902;2024-03-29T09:46:04;2.60;;;1.10;;
84660;SDS011;74889;52.240;20.902;2024-03-29T09:48:31;4.00;;;1.40;;
84660;SDS011;74889;52.240;20.902;2024-03-29T09:51:06;3.40;;;1.20;;
84660;SDS011;74889;52.240;20.902;2024-03-29T09:53:34;6.20;;;1.40;;
84660;SDS011;74889;52.240;20.902;2024-03-29T09:56:19;6.00;;;1.30;;
84660;SDS011;74889;52.240;20.902;2024-03-29T09:58:47;3.40;;;1.30;;
84660;SDS011;74889;52.240;20.902;2024-03-29T10:01:13;3.40;;;1.30;;
84660;SDS011;74889;52.240;20.902;2024-03-29T10:03:39;3.90;;;1.50;;
84660;SDS011;74889;52.240;20.902;2024-03-29T10:06:06;4.60;;;1.30;;
84660;SDS011;74889;52.240;20.902;2024-03-29T10:08:56;6.90;;;1.70;;
84660;SDS011;74889;52.240;20.902;2024-03-29T10:11:24;5.00;;;1.20;;
84660;SDS011;74889;52.240;20.902;2024-03-29T10:13:50;3.80;;;1.40;;
84660;SDS011;74889;52.240;20.902;2024-03-29T10:16:19;3.30;;;1.20;;
84660;SDS011;74889;52.240;20.902;2024-03-29T10:18:49;6.70;;;1.20;;
84660;SDS011;74889;52.240;20.902;2024-03-29T10:24:27;9.80;;;1.90;;
84660;SDS011;74889;52.240;20.902;2024-03-29T10:26:52;3.70;;;1.30;;
84660;SDS011;74889;52.240;20.902;2024-03-29T10:29:19;3.50;;;1.20;;
84660;SDS011;74889;52.240;20.902;2024-03-29T10:31:46;3.50;;;1.30;;
84660;SDS011;74889;52.240;20.902;2024-03-29T10:34:15;8.10;;;1.50;;
84660;SDS011;74889;52.240;20.902;2024-03-29T10:36:40;3.00;;;1.30;;
84660;SDS011;74889;52.240;20.902;2024-03-29T10:39:09;9.60;;;5.00;;
84660;SDS011;74889;52.240;20.902;2024-03-29T10:42:29;10.70;;;4.90;;
84660;SDS011;74889;52.240;20.902;2024-03-29T10:44:59;9.00;;;3.00;;
84660;SDS011;74889;52.240;20.902;2024-03-29T10:47:26;5.30;;;1.30;;
84660;SDS011;74889;52.240;20.902;2024-03-29T10:49:54;5.80;;;3.00;;
84660;SDS011;74889;52.240;20.902;2024-03-29T10:52:21;13.30;;;5.20;;
84660;SDS011;74889;52.240;20.902;2024-03-29T10:54:50;5.40;;;2.00;;
84660;SDS011;74889;52.240;20.902;2024-03-29T10:57:22;5.90;;;2.80;;
84660;SDS011;74889;52.240;20.902;2024-03-29T11:05:21;4.50;;;1.70;;
84660;SDS011;74889;52.240;20.902;2024-03-29T11:07:47;5.70;;;2.00;;
84660;SDS011;74889;52.240;20.902;2024-03-29T11:10:15;7.10;;;1.30;;
84660;SDS011;74889;52.240;20.902;2024-03-29T11:12:50;4.40;;;1.90;;
84660;SDS011;74889;52.240;20.902;2024-03-29T11:15:27;6.30;;;2.10;;
84660;SDS011;74889;52.240;20.902;2024-03-29T11:17:55;3.40;;;1.50;;
84660;SDS011;74889;52.240;20.902;2024-03-29T11:20:23;7.70;;;1.10;;
84660;SDS011;74889;52.240;20.902;2024-03-29T11:22:59;3.30;;;0.90;;
84660;SDS011;74889;52.240;20.902;2024-03-29T11:25:41;4.60;;;1.10;;
84660;SDS011;74889;52.240;20.902;2024-03-29T11:31:15;10.20;;;1.00;;
84660;SDS011;74889;52.240;20.902;2024-03-29T11:38:57;3.20;;;0.90;;
84660;SDS011;74889;52.240;20.902;2024-03-29T11:41:24;3.90;;;1.00;;
84660;SDS011;74889;52.240;20.902;2024-03-29T11:43:55;5.30;;;0.90;;
84660;SDS011;74889;52.240;20.902;2024-03-29T11:46:22;3.10;;;0.90;;
84660;SDS011;74889;52.240;20.902;2024-03-29T11:48:48;3.30;;;1.00;;
84660;SDS011;74889;52.240;20.902;2024-03-29T11:51:18;3.90;;;1.20;;
84660;SDS011;74889;52.240;20.902;2024-03-29T11:53:47;3.20;;;0.70;;
84660;SDS011;74889;52.240;20.902;2024-03-29T11:56:16;9.20;;;0.90;;
84660;SDS011;74889;52.240;20.902;2024-03-29T11:59:20;2.50;;;0.80;;
84660;SDS011;74889;52.240;20.902;2024-03-29T12:01:46;8.70;;;1.00;;
84660;SDS011;74889;52.240;20.902;2024-03-29T12:06:56;2.80;;;0.90;;
84660;SDS011;74889;52.240;20.902;2024-03-29T12:09:22;8.10;;;1.10;;
84660;SDS011;74889;52.240;20.902;2024-03-29T12:11:47;3.10;;;0.90;;
84660;SDS011;74889;52.240;20.902;2024-03-29T12:14:15;6.50;;;1.10;;
84660;SDS011;74889;52.240;20.902;2024-03-29T12:16:44;3.90;;;1.00;;
84660;SDS011;74889;52.240;20.902;2024-03-29T12:19:25;5.40;;;1.30;;
84660;SDS011;74889;52.240;20.902;2024-03-29T12:21:53;3.60;;;0.90;;
84660;SDS011;74889;52.240;20.902;2024-03-29T12:24:19;6.20;;;1.10;;
84660;SDS011;74889;52.240;20.902;2024-03-29T12:26:47;6.50;;;1.30;;
84660;SDS011;74889;52.240;20.902;2024-03-29T12:29:15;3.90;;;1.00;;
84660;SDS011;74889;52.240;20.902;2024-03-29T12:31:41;3.20;;;0.80;;
84660;SDS011;74889;52.240;20.902;2024-03-29T12:34:06;9.40;;;0.80;;
84660;SDS011;74889;52.240;20.902;2024-03-29T12:36:34;6.10;;;1.10;;
84660;SDS011;74889;52.240;20.902;2024-03-29T12:39:00;4.40;;;1.50;;
84660;SDS011;74889;52.240;20.902;2024-03-29T12:41:31;4.10;;;1.00;;
84660;SDS011;74889;52.240;20.902;2024-03-29T12:43:58;8.20;;;1.10;;
84660;SDS011;74889;52.240;20.902;2024-03-29T12:46:25;17.10;;;1.40;;
84660;SDS011;74889;52.240;20.902;2024-03-29T12:51:39;4.80;;;1.50;;
84660;SDS011;74889;52.240;20.902;2024-03-29T12:54:05;4.90;;;0.70;;
84660;SDS011;74889;52.240;20.902;2024-03-29T12:59:15;2.90;;;0.90;;
84660;SDS011;74889;52.240;20.902;2024-03-29T13:01:42;2.20;;;0.80;;
84660;SDS011;74889;52.240;20.902;2024-03-29T13:04:11;4.00;;;0.70;;
84660;SDS011;74889;52.240;20.902;2024-03-29T13:06:38;2.20;;;0.80;;
84660;SDS011;74889;52.240;20.902;2024-03-29T13:09:03;3.10;;;1.00;;
84660;SDS011;74889;52.240;20.902;2024-03-29T13:11:31;1.90;;;0.70;;
84660;SDS011;74889;52.240;20.902;2024-03-29T13:13:56;2.10;;;1.20;;
84660;SDS011;74889;52.240;20.902;2024-03-29T13:16:22;3.20;;;0.50;;
84660;SDS011;74889;52.240;20.902;2024-03-29T13:18:47;2.30;;;0.70;;
84660;SDS011;74889;52.240;20.902;2024-03-29T13:21:13;2.10;;;0.40;;
84660;SDS011;74889;52.240;20.902;2024-03-29T13:26:24;3.10;;;0.60;;
84660;SDS011;74889;52.240;20.902;2024-03-29T13:29:08;2.40;;;0.60;;
84660;SDS011;74889;52.240;20.902;2024-03-29T13:31:35;3.80;;;0.70;;
84660;SDS011;74889;52.240;20.902;2024-03-29T13:34:00;5.50;;;0.90;;
84660;SDS011;74889;52.240;20.902;2024-03-29T13:36:37;4.30;;;0.60;;
84660;SDS011;74889;52.240;20.902;2024-03-29T13:39:05;5.40;;;0.90;;
84660;SDS011;74889;52.240;20.902;2024-03-29T13:41:33;3.80;;;0.50;;
84660;SDS011;74889;52.240;20.902;2024-03-29T13:44:02;2.60;;;0.60;;
84660;SDS011;74889;52.240;20.902;2024-03-29T13:46:50;1.60;;;0.50;;
84660;SDS011;74889;52.240;20.902;2024-03-29T13:49:17;4.30;;;0.70;;
84660;SDS011;74889;52.240;20.902;2024-03-29T13:51:46;3.40;;;0.90;;
84660;SDS011;74889;52.240;20.902;2024-03-29T13:54:12;3.30;;;0.80;;
84660;SDS011;74889;52.240;20.902;2024-03-29T13:56:38;6.10;;;1.00;;
84660;SDS011;74889;52.240;20.902;2024-03-29T13:59:04;6.60;;;0.70;;
84660;SDS011;74889;52.240;20.902;2024-03-29T14:07:00;3.30;;;0.60;;
84660;SDS011;74889;52.240;20.902;2024-03-29T14:09:28;5.30;;;0.80;;
84660;SDS011;74889;52.240;20.902;2024-03-29T14:11:54;2.60;;;0.60;;
84660;SDS011;74889;52.240;20.902;2024-03-29T14:14:20;3.10;;;0.50;;
84660;SDS011;74889;52.240;20.902;2024-03-29T14:16:46;2.90;;;0.70;;
84660;SDS011;74889;52.240;20.902;2024-03-29T14:19:11;5.20;;;0.60;;
84660;SDS011;74889;52.240;20.902;2024-03-29T14:21:37;2.10;;;0.50;;
84660;SDS011;74889;52.240;20.902;2024-03-29T14:24:05;14.30;;;1.40;;
84660;SDS011;74889;52.240;20.902;2024-03-29T14:26:30;7.30;;;0.70;;
84660;SDS011;74889;52.240;20.902;2024-03-29T14:28:56;5.80;;;1.20;;
84660;SDS011;74889;52.240;20.902;2024-03-29T14:31:21;2.40;;;0.50;;
84660;SDS011;74889;52.240;20.902;2024-03-29T14:33:48;6.20;;;0.80;;
84660;SDS011;74889;52.240;20.902;2024-03-29T14:36:13;3.70;;;0.70;;
84660;SDS011;74889;52.240;20.902;2024-03-29T14:38:39;3.30;;;1.00;;
84660;SDS011;74889;52.240;20.902;2024-03-29T14:41:05;1.00;;;0.40;;
84660;SDS011;74889;52.240;20.902;2024-03-29T14:43:30;3.10;;;0.70;;
84660;SDS011;74889;52.240;20.902;2024-03-29T14:45:57;1.40;;;0.50;;
84660;SDS011;74889;52.240;20.902;2024-03-29T14:48:25;5.90;;;0.70;;
84660;SDS011;74889;52.240;20.902;2024-03-29T14:50:50;3.30;;;0.60;;
84660;SDS011;74889;52.240;20.902;2024-03-29T14:53:16;4.20;;;0.80;;
84660;SDS011;74889;52.240;20.902;2024-03-29T14:55:41;2.90;;;0.70;;
84660;SDS011;74889;52.240;20.902;2024-03-29T14:58:08;11.00;;;0.70;;
84660;SDS011;74889;52.240;20.902;2024-03-29T15:03:38;5.80;;;0.60;;
84660;SDS011;74889;52.240;20.902;2024-03-29T15:06:04;3.20;;;0.70;;
84660;SDS011;74889;52.240;20.902;2024-03-29T15:08:30;4.50;;;0.90;;
84660;SDS011;74889;52.240;20.902;2024-03-29T15:10:59;4.20;;;0.80;;
84660;SDS011;74889;52.240;20.902;2024-03-29T15:13:25;4.50;;;0.70;;
84660;SDS011;74889;52.240;20.902;2024-03-29T15:15:52;2.50;;;0.70;;
84660;SDS011;74889;52.240;20.902;2024-03-29T15:18:21;3.10;;;0.80;;
84660;SDS011;74889;52.240;20.902;2024-03-29T15:20:55;7.60;;;1.00;;
84660;SDS011;74889;52.240;20.902;2024-03-29T15:23:22;5.60;;;0.80;;
84660;SDS011;74889;52.240;20.902;2024-03-29T15:28:33;2.50;;;1.00;;
84660;SDS011;74889;52.240;20.902;2024-03-29T15:31:18;3.70;;;0.70;;
84660;SDS011;74889;52.240;20.902;2024-03-29T15:33:46;3.70;;;0.60;;
84660;SDS011;74889;52.240;20.902;2024-03-29T15:36:16;2.90;;;0.60;;
84660;SDS011;74889;52.240;20.902;2024-03-29T15:38:42;2.80;;;0.70;;
84660;SDS011;74889;52.240;20.902;2024-03-29T15:41:10;4.80;;;0.90;;
84660;SDS011;74889;52.240;20.902;2024-03-29T15:46:20;2.00;;;0.50;;
84660;SDS011;74889;52.240;20.902;2024-03-29T15:51:30;3.40;;;0.80;;
84660;SDS011;74889;52.240;20.902;2024-03-29T15:53:55;3.30;;;0.80;;
84660;SDS011;74889;52.240;20.902;2024-03-29T15:56:27;5.20;;;1.40;;
84660;SDS011;74889;52.240;20.902;2024-03-29T15:58:53;3.10;;;0.70;;